Terminal Aerodrome Forecast
Issued by NWS

Home | Current Version | Previous Version | Text Only | Print | Product List | Glossary On
Versions: 1 2 3 4 5 6 7 8 9 10 11 12 13 14
000
FTUS45 KABQ 052325
TAFGUP
TAF
KGUP 052325Z 0600/0624 26010KT P6SM VCTS SCT080CB BKN130
      TEMPO 0600/0603 VRB20G30KT 5SM TSRA BKN045CB
     FM060300 23008KT P6SM VCSH BKN080 OVC150
     FM060600 21006KT P6SM BKN090
     FM061500 23012KT P6SM SCT070 SCT150
     FM062000 26012KT P6SM VCTS BKN070CB BKN150
      TEMPO 0621/0624 VRB15G25KT=

USA.gov is the U.S. government's official web portal to all federal, state and local government web resources and services.